sensor_id;sensor_type;location;lat;lon;timestamp;P1;durP1;ratioP1;P2;durP2;ratioP2
42332;SDS011;27984;51.476;5.702;2023-12-20T00:01:27;26.00;;;11.02;;
42332;SDS011;27984;51.476;5.702;2023-12-20T00:03:53;29.23;;;10.32;;
42332;SDS011;27984;51.476;5.702;2023-12-20T00:06:19;25.98;;;10.52;;
42332;SDS011;27984;51.476;5.702;2023-12-20T00:08:45;23.40;;;10.18;;
42332;SDS011;27984;51.476;5.702;2023-12-20T00:11:11;30.77;;;10.52;;
42332;SDS011;27984;51.476;5.702;2023-12-20T00:13:37;21.85;;;9.52;;
42332;SDS011;27984;51.476;5.702;2023-12-20T00:16:03;31.30;;;9.68;;
42332;SDS011;27984;51.476;5.702;2023-12-20T00:18:29;32.75;;;9.35;;
42332;SDS011;27984;51.476;5.702;2023-12-20T00:20:55;27.30;;;8.07;;
42332;SDS011;27984;51.476;5.702;2023-12-20T00:23:21;23.67;;;8.82;;
42332;SDS011;27984;51.476;5.702;2023-12-20T00:25:48;27.45;;;8.93;;
42332;SDS011;27984;51.476;5.702;2023-12-20T00:28:14;19.60;;;7.63;;
42332;SDS011;27984;51.476;5.702;2023-12-20T00:30:40;22.42;;;7.28;;
42332;SDS011;27984;51.476;5.702;2023-12-20T00:33:07;28.52;;;7.30;;
42332;SDS011;27984;51.476;5.702;2023-12-20T00:35:33;27.77;;;6.57;;
42332;SDS011;27984;51.476;5.702;2023-12-20T00:37:59;20.75;;;6.70;;
42332;SDS011;27984;51.476;5.702;2023-12-20T00:40:25;33.08;;;6.78;;
42332;SDS011;27984;51.476;5.702;2023-12-20T00:42:51;26.30;;;6.57;;
42332;SDS011;27984;51.476;5.702;2023-12-20T00:45:17;17.10;;;5.55;;
42332;SDS011;27984;51.476;5.702;2023-12-20T00:47:43;23.77;;;5.57;;
42332;SDS011;27984;51.476;5.702;2023-12-20T00:50:09;22.92;;;5.70;;
42332;SDS011;27984;51.476;5.702;2023-12-20T00:52:35;25.00;;;5.32;;
42332;SDS011;27984;51.476;5.702;2023-12-20T00:55:01;26.80;;;5.47;;
42332;SDS011;27984;51.476;5.702;2023-12-20T00:57:28;25.80;;;4.55;;
42332;SDS011;27984;51.476;5.702;2023-12-20T00:59:55;28.48;;;4.55;;
42332;SDS011;27984;51.476;5.702;2023-12-20T01:02:21;27.17;;;4.90;;
42332;SDS011;27984;51.476;5.702;2023-12-20T01:04:47;29.42;;;4.47;;
42332;SDS011;27984;51.476;5.702;2023-12-20T01:07:13;22.13;;;4.47;;
42332;SDS011;27984;51.476;5.702;2023-12-20T01:09:42;27.00;;;4.45;;
42332;SDS011;27984;51.476;5.702;2023-12-20T01:12:08;19.38;;;4.20;;
42332;SDS011;27984;51.476;5.702;2023-12-20T01:14:35;26.33;;;4.20;;
42332;SDS011;27984;51.476;5.702;2023-12-20T01:17:01;18.90;;;3.75;;
42332;SDS011;27984;51.476;5.702;2023-12-20T01:19:27;21.52;;;4.55;;
42332;SDS011;27984;51.476;5.702;2023-12-20T01:21:54;15.80;;;4.10;;
42332;SDS011;27984;51.476;5.702;2023-12-20T01:24:20;23.38;;;3.85;;
42332;SDS011;27984;51.476;5.702;2023-12-20T01:26:46;20.45;;;3.45;;
42332;SDS011;27984;51.476;5.702;2023-12-20T01:29:12;23.15;;;4.07;;
42332;SDS011;27984;51.476;5.702;2023-12-20T01:31:39;18.83;;;3.75;;
42332;SDS011;27984;51.476;5.702;2023-12-20T01:34:05;23.58;;;4.00;;
42332;SDS011;27984;51.476;5.702;2023-12-20T01:36:31;24.95;;;3.80;;
42332;SDS011;27984;51.476;5.702;2023-12-20T01:38:57;26.95;;;3.75;;
42332;SDS011;27984;51.476;5.702;2023-12-20T01:41:23;23.45;;;3.80;;
42332;SDS011;27984;51.476;5.702;2023-12-20T01:43:50;25.20;;;4.07;;
42332;SDS011;27984;51.476;5.702;2023-12-20T01:46:18;33.78;;;4.82;;
42332;SDS011;27984;51.476;5.702;2023-12-20T01:48:44;20.08;;;3.83;;
42332;SDS011;27984;51.476;5.702;2023-12-20T01:51:10;24.55;;;3.65;;
42332;SDS011;27984;51.476;5.702;2023-12-20T01:53:36;31.02;;;4.40;;
42332;SDS011;27984;51.476;5.702;2023-12-20T01:56:02;19.02;;;3.53;;
42332;SDS011;27984;51.476;5.702;2023-12-20T01:58:29;20.80;;;3.55;;
42332;SDS011;27984;51.476;5.702;2023-12-20T02:00:55;32.15;;;3.58;;
42332;SDS011;27984;51.476;5.702;2023-12-20T02:03:21;20.63;;;3.85;;
42332;SDS011;27984;51.476;5.702;2023-12-20T02:05:47;17.95;;;3.72;;
42332;SDS011;27984;51.476;5.702;2023-12-20T02:08:13;27.20;;;3.28;;
42332;SDS011;27984;51.476;5.702;2023-12-20T02:10:39;23.08;;;3.58;;
42332;SDS011;27984;51.476;5.702;2023-12-20T02:13:05;19.48;;;3.75;;
42332;SDS011;27984;51.476;5.702;2023-12-20T02:15:31;21.40;;;4.15;;
42332;SDS011;27984;51.476;5.702;2023-12-20T02:17:57;23.08;;;3.70;;
42332;SDS011;27984;51.476;5.702;2023-12-20T02:20:23;19.80;;;3.65;;
42332;SDS011;27984;51.476;5.702;2023-12-20T02:22:49;23.55;;;3.45;;
42332;SDS011;27984;51.476;5.702;2023-12-20T02:25:15;16.67;;;3.35;;
42332;SDS011;27984;51.476;5.702;2023-12-20T02:27:41;25.92;;;3.63;;
42332;SDS011;27984;51.476;5.702;2023-12-20T02:30:07;16.48;;;3.88;;
42332;SDS011;27984;51.476;5.702;2023-12-20T02:32:34;20.08;;;4.60;;
42332;SDS011;27984;51.476;5.702;2023-12-20T02:35:00;24.77;;;4.07;;
42332;SDS011;27984;51.476;5.702;2023-12-20T02:37:25;17.20;;;4.40;;
42332;SDS011;27984;51.476;5.702;2023-12-20T02:39:51;24.52;;;3.95;;
42332;SDS011;27984;51.476;5.702;2023-12-20T02:42:17;22.50;;;4.18;;
42332;SDS011;27984;51.476;5.702;2023-12-20T02:44:43;26.08;;;4.57;;
42332;SDS011;27984;51.476;5.702;2023-12-20T02:47:09;21.83;;;4.07;;
42332;SDS011;27984;51.476;5.702;2023-12-20T02:49:35;32.97;;;4.70;;
42332;SDS011;27984;51.476;5.702;2023-12-20T02:52:01;19.08;;;4.28;;
42332;SDS011;27984;51.476;5.702;2023-12-20T02:54:27;24.63;;;4.97;;
42332;SDS011;27984;51.476;5.702;2023-12-20T02:56:53;24.33;;;4.47;;
42332;SDS011;27984;51.476;5.702;2023-12-20T02:59:19;26.30;;;4.47;;
42332;SDS011;27984;51.476;5.702;2023-12-20T03:01:45;22.45;;;4.18;;
42332;SDS011;27984;51.476;5.702;2023-12-20T03:04:11;27.88;;;4.63;;
42332;SDS011;27984;51.476;5.702;2023-12-20T03:06:38;19.45;;;4.68;;
42332;SDS011;27984;51.476;5.702;2023-12-20T03:09:04;25.30;;;5.13;;
42332;SDS011;27984;51.476;5.702;2023-12-20T03:11:30;23.38;;;4.70;;
42332;SDS011;27984;51.476;5.702;2023-12-20T03:13:56;31.27;;;5.07;;
42332;SDS011;27984;51.476;5.702;2023-12-20T03:16:22;22.00;;;4.85;;
42332;SDS011;27984;51.476;5.702;2023-12-20T03:18:49;20.17;;;4.20;;
42332;SDS011;27984;51.476;5.702;2023-12-20T03:21:15;32.83;;;5.28;;
42332;SDS011;27984;51.476;5.702;2023-12-20T03:23:41;24.38;;;5.20;;
42332;SDS011;27984;51.476;5.702;2023-12-20T03:26:07;25.38;;;4.97;;
42332;SDS011;27984;51.476;5.702;2023-12-20T03:28:34;30.38;;;4.20;;
42332;SDS011;27984;51.476;5.702;2023-12-20T03:31:00;30.77;;;4.57;;
42332;SDS011;27984;51.476;5.702;2023-12-20T03:33:27;21.60;;;5.30;;
42332;SDS011;27984;51.476;5.702;2023-12-20T03:35:53;22.10;;;4.53;;
42332;SDS011;27984;51.476;5.702;2023-12-20T03:38:19;19.00;;;4.65;;
42332;SDS011;27984;51.476;5.702;2023-12-20T03:40:45;26.00;;;4.60;;
42332;SDS011;27984;51.476;5.702;2023-12-20T03:43:11;22.20;;;5.07;;
42332;SDS011;27984;51.476;5.702;2023-12-20T03:45:37;32.20;;;5.25;;
42332;SDS011;27984;51.476;5.702;2023-12-20T03:48:03;21.40;;;4.75;;
42332;SDS011;27984;51.476;5.702;2023-12-20T03:50:29;17.02;;;4.90;;
42332;SDS011;27984;51.476;5.702;2023-12-20T03:52:55;31.60;;;6.55;;
42332;SDS011;27984;51.476;5.702;2023-12-20T03:55:21;29.52;;;6.25;;
42332;SDS011;27984;51.476;5.702;2023-12-20T03:57:47;23.48;;;5.97;;
42332;SDS011;27984;51.476;5.702;2023-12-20T04:00:13;29.52;;;5.97;;
42332;SDS011;27984;51.476;5.702;2023-12-20T04:02:42;30.02;;;6.75;;
42332;SDS011;27984;51.476;5.702;2023-12-20T04:05:08;27.63;;;7.45;;
42332;SDS011;27984;51.476;5.702;2023-12-20T04:07:35;23.05;;;6.40;;
42332;SDS011;27984;51.476;5.702;2023-12-20T04:10:01;27.23;;;6.22;;
42332;SDS011;27984;51.476;5.702;2023-12-20T04:12:28;26.08;;;6.68;;
42332;SDS011;27984;51.476;5.702;2023-12-20T04:14:55;28.67;;;6.80;;
42332;SDS011;27984;51.476;5.702;2023-12-20T04:17:21;28.95;;;6.78;;
42332;SDS011;27984;51.476;5.702;2023-12-20T04:19:48;23.77;;;6.47;;
42332;SDS011;27984;51.476;5.702;2023-12-20T04:22:14;28.02;;;7.22;;
42332;SDS011;27984;51.476;5.702;2023-12-20T04:24:39;23.38;;;6.30;;
42332;SDS011;27984;51.476;5.702;2023-12-20T04:27:07;32.17;;;7.30;;
42332;SDS011;27984;51.476;5.702;2023-12-20T04:29:33;29.23;;;6.63;;
42332;SDS011;27984;51.476;5.702;2023-12-20T04:31:59;31.38;;;7.03;;
42332;SDS011;27984;51.476;5.702;2023-12-20T04:34:25;25.42;;;6.88;;
42332;SDS011;27984;51.476;5.702;2023-12-20T04:36:51;34.97;;;6.93;;
42332;SDS011;27984;51.476;5.702;2023-12-20T04:39:17;29.40;;;6.43;;
42332;SDS011;27984;51.476;5.702;2023-12-20T04:41:43;25.35;;;6.97;;
42332;SDS011;27984;51.476;5.702;2023-12-20T04:44:09;24.05;;;6.43;;
42332;SDS011;27984;51.476;5.702;2023-12-20T04:46:35;26.60;;;6.88;;
42332;SDS011;27984;51.476;5.702;2023-12-20T04:49:01;25.25;;;6.97;;
42332;SDS011;27984;51.476;5.702;2023-12-20T04:51:27;31.40;;;7.68;;
42332;SDS011;27984;51.476;5.702;2023-12-20T04:53:53;24.83;;;6.20;;
42332;SDS011;27984;51.476;5.702;2023-12-20T04:56:19;26.20;;;6.97;;
42332;SDS011;27984;51.476;5.702;2023-12-20T04:58:45;35.97;;;7.22;;
42332;SDS011;27984;51.476;5.702;2023-12-20T05:01:12;29.23;;;7.63;;
42332;SDS011;27984;51.476;5.702;2023-12-20T05:03:38;32.33;;;7.32;;
42332;SDS011;27984;51.476;5.702;2023-12-20T05:06:04;33.40;;;7.00;;
42332;SDS011;27984;51.476;5.702;2023-12-20T05:08:30;38.20;;;7.25;;
42332;SDS011;27984;51.476;5.702;2023-12-20T05:10:56;33.95;;;7.50;;
42332;SDS011;27984;51.476;5.702;2023-12-20T05:13:22;23.65;;;6.43;;
42332;SDS011;27984;51.476;5.702;2023-12-20T05:15:48;27.83;;;6.53;;
42332;SDS011;27984;51.476;5.702;2023-12-20T05:18:14;32.42;;;7.28;;
42332;SDS011;27984;51.476;5.702;2023-12-20T05:20:40;24.20;;;6.85;;
42332;SDS011;27984;51.476;5.702;2023-12-20T05:23:06;33.25;;;7.05;;
42332;SDS011;27984;51.476;5.702;2023-12-20T05:25:33;33.15;;;6.97;;
42332;SDS011;27984;51.476;5.702;2023-12-20T05:27:59;30.85;;;7.50;;
42332;SDS011;27984;51.476;5.702;2023-12-20T05:30:25;38.10;;;7.47;;
42332;SDS011;27984;51.476;5.702;2023-12-20T05:32:51;21.90;;;6.30;;
42332;SDS011;27984;51.476;5.702;2023-12-20T05:35:17;24.45;;;6.97;;
42332;SDS011;27984;51.476;5.702;2023-12-20T05:37:44;30.27;;;7.00;;
42332;SDS011;27984;51.476;5.702;2023-12-20T05:40:10;30.70;;;7.55;;
42332;SDS011;27984;51.476;5.702;2023-12-20T05:42:36;30.20;;;7.28;;
42332;SDS011;27984;51.476;5.702;2023-12-20T05:45:03;26.00;;;7.28;;
42332;SDS011;27984;51.476;5.702;2023-12-20T05:47:29;30.70;;;7.18;;
42332;SDS011;27984;51.476;5.702;2023-12-20T05:49:55;28.20;;;7.05;;
42332;SDS011;27984;51.476;5.702;2023-12-20T05:52:21;28.85;;;6.43;;
42332;SDS011;27984;51.476;5.702;2023-12-20T05:54:47;23.23;;;6.82;;
42332;SDS011;27984;51.476;5.702;2023-12-20T05:57:13;32.35;;;7.13;;
42332;SDS011;27984;51.476;5.702;2023-12-20T05:59:39;26.23;;;6.68;;
42332;SDS011;27984;51.476;5.702;2023-12-20T06:02:05;26.90;;;7.07;;
42332;SDS011;27984;51.476;5.702;2023-12-20T06:04:31;31.00;;;7.15;;
42332;SDS011;27984;51.476;5.702;2023-12-20T06:06:57;35.28;;;7.90;;
42332;SDS011;27984;51.476;5.702;2023-12-20T06:09:24;33.00;;;7.53;;
42332;SDS011;27984;51.476;5.702;2023-12-20T06:11:50;26.42;;;6.97;;
42332;SDS011;27984;51.476;5.702;2023-12-20T06:14:16;32.20;;;7.50;;
42332;SDS011;27984;51.476;5.702;2023-12-20T06:16:42;34.97;;;7.57;;
42332;SDS011;27984;51.476;5.702;2023-12-20T06:19:08;32.72;;;7.68;;
42332;SDS011;27984;51.476;5.702;2023-12-20T06:21:34;27.90;;;7.30;;
42332;SDS011;27984;51.476;5.702;2023-12-20T06:24:00;28.67;;;7.35;;
42332;SDS011;27984;51.476;5.702;2023-12-20T06:26:26;26.08;;;6.72;;
42332;SDS011;27984;51.476;5.702;2023-12-20T06:28:52;29.35;;;7.47;;
42332;SDS011;27984;51.476;5.702;2023-12-20T06:31:18;21.80;;;6.32;;
42332;SDS011;27984;51.476;5.702;2023-12-20T06:33:44;34.67;;;6.50;;
42332;SDS011;27984;51.476;5.702;2023-12-20T06:36:13;21.60;;;5.95;;
42332;SDS011;27984;51.476;5.702;2023-12-20T06:38:39;23.38;;;5.85;;
42332;SDS011;27984;51.476;5.702;2023-12-20T06:41:07;26.55;;;5.90;;
42332;SDS011;27984;51.476;5.702;2023-12-20T06:43:33;28.85;;;6.65;;
42332;SDS011;27984;51.476;5.702;2023-12-20T06:46:02;29.15;;;5.80;;
42332;SDS011;27984;51.476;5.702;2023-12-20T06:48:28;31.85;;;5.45;;
42332;SDS011;27984;51.476;5.702;2023-12-20T06:50:54;35.05;;;6.53;;
42332;SDS011;27984;51.476;5.702;2023-12-20T06:53:20;27.05;;;5.70;;
42332;SDS011;27984;51.476;5.702;2023-12-20T06:55:46;22.77;;;5.47;;
42332;SDS011;27984;51.476;5.702;2023-12-20T06:58:12;25.80;;;5.53;;
42332;SDS011;27984;51.476;5.702;2023-12-20T07:00:37;30.80;;;6.00;;
42332;SDS011;27984;51.476;5.702;2023-12-20T07:03:06;26.50;;;5.95;;
42332;SDS011;27984;51.476;5.702;2023-12-20T07:05:32;18.08;;;4.97;;
42332;SDS011;27984;51.476;5.702;2023-12-20T07:07:58;26.27;;;5.13;;
42332;SDS011;27984;51.476;5.702;2023-12-20T07:10:24;26.17;;;5.47;;
42332;SDS011;27984;51.476;5.702;2023-12-20T07:12:50;31.08;;;6.15;;
42332;SDS011;27984;51.476;5.702;2023-12-20T07:15:17;25.65;;;5.95;;
42332;SDS011;27984;51.476;5.702;2023-12-20T07:17:43;22.92;;;5.32;;
42332;SDS011;27984;51.476;5.702;2023-12-20T07:20:09;25.92;;;5.22;;
42332;SDS011;27984;51.476;5.702;2023-12-20T07:22:36;22.55;;;5.10;;
42332;SDS011;27984;51.476;5.702;2023-12-20T07:25:02;25.85;;;5.10;;
42332;SDS011;27984;51.476;5.702;2023-12-20T07:27:28;26.40;;;5.63;;
42332;SDS011;27984;51.476;5.702;2023-12-20T07:29:54;29.90;;;5.15;;
42332;SDS011;27984;51.476;5.702;2023-12-20T07:32:20;28.73;;;5.35;;
42332;SDS011;27984;51.476;5.702;2023-12-20T07:34:46;31.48;;;5.85;;
42332;SDS011;27984;51.476;5.702;2023-12-20T07:37:12;25.27;;;5.57;;
42332;SDS011;27984;51.476;5.702;2023-12-20T07:39:39;24.02;;;5.32;;
42332;SDS011;27984;51.476;5.702;2023-12-20T07:42:05;23.50;;;5.30;;
42332;SDS011;27984;51.476;5.702;2023-12-20T07:44:31;26.00;;;5.50;;
42332;SDS011;27984;51.476;5.702;2023-12-20T07:46:57;28.27;;;5.22;;
42332;SDS011;27984;51.476;5.702;2023-12-20T07:49:23;27.63;;;5.38;;
42332;SDS011;27984;51.476;5.702;2023-12-20T07:51:49;21.23;;;5.00;;
42332;SDS011;27984;51.476;5.702;2023-12-20T07:54:15;28.38;;;4.68;;
42332;SDS011;27984;51.476;5.702;2023-12-20T07:56:41;23.58;;;4.30;;
42332;SDS011;27984;51.476;5.702;2023-12-20T07:59:08;20.02;;;4.53;;
42332;SDS011;27984;51.476;5.702;2023-12-20T08:01:34;32.17;;;5.18;;
42332;SDS011;27984;51.476;5.702;2023-12-20T08:04:01;22.23;;;4.75;;
42332;SDS011;27984;51.476;5.702;2023-12-20T08:06:27;20.02;;;4.63;;
42332;SDS011;27984;51.476;5.702;2023-12-20T08:08:52;23.08;;;5.13;;
42332;SDS011;27984;51.476;5.702;2023-12-20T08:11:18;25.00;;;4.32;;
42332;SDS011;27984;51.476;5.702;2023-12-20T08:13:44;13.73;;;3.72;;
42332;SDS011;27984;51.476;5.702;2023-12-20T08:16:10;21.55;;;4.38;;
42332;SDS011;27984;51.476;5.702;2023-12-20T08:18:38;20.95;;;5.07;;
42332;SDS011;27984;51.476;5.702;2023-12-20T08:21:04;21.33;;;4.75;;
42332;SDS011;27984;51.476;5.702;2023-12-20T08:23:32;17.02;;;4.25;;
42332;SDS011;27984;51.476;5.702;2023-12-20T08:25:58;26.60;;;4.53;;
42332;SDS011;27984;51.476;5.702;2023-12-20T08:28:24;28.30;;;4.47;;
42332;SDS011;27984;51.476;5.702;2023-12-20T08:30:50;22.00;;;4.50;;
42332;SDS011;27984;51.476;5.702;2023-12-20T08:33:18;23.70;;;4.57;;
42332;SDS011;27984;51.476;5.702;2023-12-20T08:35:44;25.15;;;4.45;;
42332;SDS011;27984;51.476;5.702;2023-12-20T08:38:10;28.40;;;4.80;;
42332;SDS011;27984;51.476;5.702;2023-12-20T08:40:37;21.30;;;4.88;;
42332;SDS011;27984;51.476;5.702;2023-12-20T08:43:03;20.38;;;4.35;;
42332;SDS011;27984;51.476;5.702;2023-12-20T08:45:29;25.27;;;4.70;;
42332;SDS011;27984;51.476;5.702;2023-12-20T08:47:55;21.05;;;4.22;;
42332;SDS011;27984;51.476;5.702;2023-12-20T08:50:21;21.65;;;4.45;;
42332;SDS011;27984;51.476;5.702;2023-12-20T08:52:47;22.77;;;4.10;;
42332;SDS011;27984;51.476;5.702;2023-12-20T08:55:13;25.42;;;4.80;;
42332;SDS011;27984;51.476;5.702;2023-12-20T08:57:41;23.70;;;4.80;;
42332;SDS011;27984;51.476;5.702;2023-12-20T09:00:07;20.55;;;4.35;;
42332;SDS011;27984;51.476;5.702;2023-12-20T09:02:33;18.27;;;4.10;;
42332;SDS011;27984;51.476;5.702;2023-12-20T09:05:01;27.80;;;4.80;;
42332;SDS011;27984;51.476;5.702;2023-12-20T09:07:27;19.83;;;4.90;;
42332;SDS011;27984;51.476;5.702;2023-12-20T09:09:55;23.13;;;4.35;;
42332;SDS011;27984;51.476;5.702;2023-12-20T09:12:21;22.00;;;4.70;;
42332;SDS011;27984;51.476;5.702;2023-12-20T09:14:48;22.10;;;5.05;;
42332;SDS011;27984;51.476;5.702;2023-12-20T09:17:14;25.17;;;4.65;;
42332;SDS011;27984;51.476;5.702;2023-12-20T09:19:41;19.95;;;4.55;;
42332;SDS011;27984;51.476;5.702;2023-12-20T09:22:08;22.02;;;4.68;;
42332;SDS011;27984;51.476;5.702;2023-12-20T09:24:34;18.85;;;4.65;;
42332;SDS011;27984;51.476;5.702;2023-12-20T09:27:00;19.25;;;4.53;;
42332;SDS011;27984;51.476;5.702;2023-12-20T09:29:26;18.83;;;4.50;;
42332;SDS011;27984;51.476;5.702;2023-12-20T09:31:52;23.60;;;4.07;;
42332;SDS011;27984;51.476;5.702;2023-12-20T09:34:18;16.90;;;4.22;;
42332;SDS011;27984;51.476;5.702;2023-12-20T09:36:44;25.75;;;4.80;;
42332;SDS011;27984;51.476;5.702;2023-12-20T09:39:15;22.75;;;4.63;;
42332;SDS011;27984;51.476;5.702;2023-12-20T09:41:44;26.17;;;4.35;;
42332;SDS011;27984;51.476;5.702;2023-12-20T09:44:18;27.38;;;4.70;;
42332;SDS011;27984;51.476;5.702;2023-12-20T09:46:44;19.35;;;4.53;;
42332;SDS011;27984;51.476;5.702;2023-12-20T09:49:11;17.95;;;4.20;;
42332;SDS011;27984;51.476;5.702;2023-12-20T09:51:37;19.02;;;4.72;;
42332;SDS011;27984;51.476;5.702;2023-12-20T09:54:03;22.90;;;4.18;;
42332;SDS011;27984;51.476;5.702;2023-12-20T09:56:29;25.38;;;4.95;;
42332;SDS011;27984;51.476;5.702;2023-12-20T09:58:55;23.95;;;4.70;;
42332;SDS011;27984;51.476;5.702;2023-12-20T10:01:21;28.50;;;4.32;;
42332;SDS011;27984;51.476;5.702;2023-12-20T10:03:48;25.42;;;4.38;;
42332;SDS011;27984;51.476;5.702;2023-12-20T10:06:16;24.67;;;4.70;;
42332;SDS011;27984;51.476;5.702;2023-12-20T10:08:42;26.88;;;4.68;;
42332;SDS011;27984;51.476;5.702;2023-12-20T10:11:08;17.90;;;4.18;;
42332;SDS011;27984;51.476;5.702;2023-12-20T10:13:34;22.55;;;4.80;;
42332;SDS011;27984;51.476;5.702;2023-12-20T10:16:05;20.77;;;4.72;;
42332;SDS011;27984;51.476;5.702;2023-12-20T10:18:32;21.98;;;4.28;;
42332;SDS011;27984;51.476;5.702;2023-12-20T10:20:58;21.77;;;4.57;;
42332;SDS011;27984;51.476;5.702;2023-12-20T10:23:24;19.00;;;4.40;;
42332;SDS011;27984;51.476;5.702;2023-12-20T10:25:57;20.70;;;5.10;;
42332;SDS011;27984;51.476;5.702;2023-12-20T10:28:23;22.17;;;4.88;;
42332;SDS011;27984;51.476;5.702;2023-12-20T10:30:52;17.08;;;4.35;;
42332;SDS011;27984;51.476;5.702;2023-12-20T10:33:25;18.35;;;4.68;;
42332;SDS011;27984;51.476;5.702;2023-12-20T10:35:52;20.75;;;4.75;;
42332;SDS011;27984;51.476;5.702;2023-12-20T10:38:19;22.00;;;4.57;;
42332;SDS011;27984;51.476;5.702;2023-12-20T10:40:45;21.08;;;4.57;;
42332;SDS011;27984;51.476;5.702;2023-12-20T10:43:11;28.17;;;4.72;;
42332;SDS011;27984;51.476;5.702;2023-12-20T10:45:38;23.73;;;4.82;;
42332;SDS011;27984;51.476;5.702;2023-12-20T10:48:04;19.90;;;4.60;;
42332;SDS011;27984;51.476;5.702;2023-12-20T10:50:31;14.05;;;4.18;;
42332;SDS011;27984;51.476;5.702;2023-12-20T10:52:57;21.58;;;4.60;;
42332;SDS011;27984;51.476;5.702;2023-12-20T10:55:24;18.63;;;4.97;;
42332;SDS011;27984;51.476;5.702;2023-12-20T10:57:51;24.23;;;4.80;;
42332;SDS011;27984;51.476;5.702;2023-12-20T11:00:17;20.85;;;4.38;;
42332;SDS011;27984;51.476;5.702;2023-12-20T11:02:44;22.20;;;4.35;;
42332;SDS011;27984;51.476;5.702;2023-12-20T11:05:12;15.40;;;4.60;;
42332;SDS011;27984;51.476;5.702;2023-12-20T11:07:42;23.35;;;4.80;;
42332;SDS011;27984;51.476;5.702;2023-12-20T11:10:17;27.58;;;4.53;;
42332;SDS011;27984;51.476;5.702;2023-12-20T11:12:49;19.75;;;4.47;;
42332;SDS011;27984;51.476;5.702;2023-12-20T11:15:16;22.02;;;4.45;;
42332;SDS011;27984;51.476;5.702;2023-12-20T11:17:44;20.80;;;4.20;;
42332;SDS011;27984;51.476;5.702;2023-12-20T11:20:13;24.80;;;4.50;;
42332;SDS011;27984;51.476;5.702;2023-12-20T11:22:39;21.48;;;4.63;;
42332;SDS011;27984;51.476;5.702;2023-12-20T11:25:17;26.63;;;4.40;;
42332;SDS011;27984;51.476;5.702;2023-12-20T11:27:43;22.63;;;4.57;;
42332;SDS011;27984;51.476;5.702;2023-12-20T11:30:10;27.92;;;4.97;;
42332;SDS011;27984;51.476;5.702;2023-12-20T11:32:36;20.80;;;4.95;;
42332;SDS011;27984;51.476;5.702;2023-12-20T11:37:36;21.05;;;4.57;;
42332;SDS011;27984;51.476;5.702;2023-12-20T11:40:05;24.50;;;5.00;;
42332;SDS011;27984;51.476;5.702;2023-12-20T11:42:40;18.52;;;4.90;;
42332;SDS011;27984;51.476;5.702;2023-12-20T11:45:19;18.23;;;4.65;;
42332;SDS011;27984;51.476;5.702;2023-12-20T11:47:47;21.90;;;5.20;;
42332;SDS011;27984;51.476;5.702;2023-12-20T11:50:17;22.50;;;5.03;;
42332;SDS011;27984;51.476;5.702;2023-12-20T11:52:43;21.08;;;5.45;;
42332;SDS011;27984;51.476;5.702;2023-12-20T11:55:09;24.52;;;5.88;;
42332;SDS011;27984;51.476;5.702;2023-12-20T11:57:36;20.75;;;5.47;;
42332;SDS011;27984;51.476;5.702;2023-12-20T12:00:02;23.77;;;5.60;;
42332;SDS011;27984;51.476;5.702;2023-12-20T12:02:29;25.38;;;6.00;;
42332;SDS011;27984;51.476;5.702;2023-12-20T12:04:55;27.90;;;6.25;;
42332;SDS011;27984;51.476;5.702;2023-12-20T12:07:23;22.48;;;5.55;;
42332;SDS011;27984;51.476;5.702;2023-12-20T12:09:49;24.88;;;6.05;;
42332;SDS011;27984;51.476;5.702;2023-12-20T12:12:15;22.80;;;5.95;;
42332;SDS011;27984;51.476;5.702;2023-12-20T12:14:41;27.20;;;6.35;;
42332;SDS011;27984;51.476;5.702;2023-12-20T12:17:10;24.20;;;6.18;;
42332;SDS011;27984;51.476;5.702;2023-12-20T12:19:37;26.55;;;6.45;;
42332;SDS011;27984;51.476;5.702;2023-12-20T12:22:13;29.17;;;6.47;;
42332;SDS011;27984;51.476;5.702;2023-12-20T12:24:41;21.33;;;6.13;;
42332;SDS011;27984;51.476;5.702;2023-12-20T12:27:07;27.92;;;7.35;;
42332;SDS011;27984;51.476;5.702;2023-12-20T12:29:33;30.02;;;7.15;;
42332;SDS011;27984;51.476;5.702;2023-12-20T12:31:59;23.25;;;6.18;;
42332;SDS011;27984;51.476;5.702;2023-12-20T12:34:28;24.38;;;6.97;;
42332;SDS011;27984;51.476;5.702;2023-12-20T12:36:55;26.50;;;7.53;;
42332;SDS011;27984;51.476;5.702;2023-12-20T12:39:22;25.70;;;7.57;;
42332;SDS011;27984;51.476;5.702;2023-12-20T12:41:50;21.90;;;7.10;;
42332;SDS011;27984;51.476;5.702;2023-12-20T12:44:16;33.03;;;7.85;;
42332;SDS011;27984;51.476;5.702;2023-12-20T12:46:42;24.83;;;8.02;;
42332;SDS011;27984;51.476;5.702;2023-12-20T12:49:11;31.77;;;7.65;;
42332;SDS011;27984;51.476;5.702;2023-12-20T12:51:38;32.00;;;7.28;;
42332;SDS011;27984;51.476;5.702;2023-12-20T12:54:04;26.42;;;7.72;;
42332;SDS011;27984;51.476;5.702;2023-12-20T12:56:30;28.63;;;7.03;;
42332;SDS011;27984;51.476;5.702;2023-12-20T12:58:56;22.90;;;7.88;;
42332;SDS011;27984;51.476;5.702;2023-12-20T13:01:22;18.48;;;7.72;;
42332;SDS011;27984;51.476;5.702;2023-12-20T13:03:48;25.83;;;8.70;;
42332;SDS011;27984;51.476;5.702;2023-12-20T13:06:14;24.75;;;9.07;;
42332;SDS011;27984;51.476;5.702;2023-12-20T13:08:40;28.65;;;9.57;;
42332;SDS011;27984;51.476;5.702;2023-12-20T13:11:06;32.30;;;9.73;;
42332;SDS011;27984;51.476;5.702;2023-12-20T13:13:32;28.50;;;9.70;;
42332;SDS011;27984;51.476;5.702;2023-12-20T13:15:58;33.58;;;9.80;;
42332;SDS011;27984;51.476;5.702;2023-12-20T13:18:25;27.50;;;9.23;;
42332;SDS011;27984;51.476;5.702;2023-12-20T13:20:51;25.27;;;9.27;;
42332;SDS011;27984;51.476;5.702;2023-12-20T13:23:18;23.10;;;9.15;;
42332;SDS011;27984;51.476;5.702;2023-12-20T13:25:44;31.45;;;9.93;;
42332;SDS011;27984;51.476;5.702;2023-12-20T13:28:10;22.10;;;9.75;;
42332;SDS011;27984;51.476;5.702;2023-12-20T13:30:37;27.98;;;9.50;;
42332;SDS011;27984;51.476;5.702;2023-12-20T13:33:03;27.17;;;9.50;;
42332;SDS011;27984;51.476;5.702;2023-12-20T13:35:30;27.75;;;9.18;;
42332;SDS011;27984;51.476;5.702;2023-12-20T13:37:56;23.48;;;8.70;;
42332;SDS011;27984;51.476;5.702;2023-12-20T13:40:23;29.48;;;9.02;;
42332;SDS011;27984;51.476;5.702;2023-12-20T13:42:48;30.30;;;9.02;;
42332;SDS011;27984;51.476;5.702;2023-12-20T13:45:15;25.05;;;8.57;;
42332;SDS011;27984;51.476;5.702;2023-12-20T13:47:41;27.60;;;8.50;;
42332;SDS011;27984;51.476;5.702;2023-12-20T13:50:07;30.05;;;8.70;;
42332;SDS011;27984;51.476;5.702;2023-12-20T13:52:33;35.03;;;8.65;;
42332;SDS011;27984;51.476;5.702;2023-12-20T13:54:59;28.63;;;9.50;;
42332;SDS011;27984;51.476;5.702;2023-12-20T13:57:25;24.70;;;7.65;;
42332;SDS011;27984;51.476;5.702;2023-12-20T13:59:51;26.58;;;8.00;;
42332;SDS011;27984;51.476;5.702;2023-12-20T14:02:17;27.17;;;8.15;;
42332;SDS011;27984;51.476;5.702;2023-12-20T14:04:43;26.25;;;7.88;;
42332;SDS011;27984;51.476;5.702;2023-12-20T14:07:09;24.30;;;7.65;;
42332;SDS011;27984;51.476;5.702;2023-12-20T14:09:35;25.58;;;7.63;;
42332;SDS011;27984;51.476;5.702;2023-12-20T14:12:01;22.95;;;7.40;;
42332;SDS011;27984;51.476;5.702;2023-12-20T14:14:27;26.85;;;6.85;;
42332;SDS011;27984;51.476;5.702;2023-12-20T14:16:53;26.85;;;7.13;;
42332;SDS011;27984;51.476;5.702;2023-12-20T14:19:19;24.95;;;6.75;;
42332;SDS011;27984;51.476;5.702;2023-12-20T14:21:45;29.40;;;7.20;;
42332;SDS011;27984;51.476;5.702;2023-12-20T14:24:14;28.58;;;7.60;;
42332;SDS011;27984;51.476;5.702;2023-12-20T14:26:41;21.73;;;6.97;;
42332;SDS011;27984;51.476;5.702;2023-12-20T14:29:07;22.70;;;6.53;;
42332;SDS011;27984;51.476;5.702;2023-12-20T14:31:33;19.42;;;6.93;;